sensor_id;sensor_type;location;lat;lon;timestamp;pressure;altitude;pressure_sealevel;temperature
69857;BMP280;57147;53.582;10.112;2023-12-22T00:02:03;98646.78;;;4.92
69857;BMP280;57147;53.582;10.112;2023-12-22T00:07:03;98667.06;;;4.92
69857;BMP280;57147;53.582;10.112;2023-12-22T00:12:04;98655.56;;;4.88
69857;BMP280;57147;53.582;10.112;2023-12-22T00:17:04;98663.63;;;4.83
69857;BMP280;57147;53.582;10.112;2023-12-22T00:22:04;98668.50;;;4.76
69857;BMP280;57147;53.582;10.112;2023-12-22T00:27:04;98651.78;;;4.72
69857;BMP280;57147;53.582;10.112;2023-12-22T00:32:05;98666.75;;;4.71
69857;BMP280;57147;53.582;10.112;2023-12-22T00:37:05;98666.47;;;4.73
69857;BMP280;57147;53.582;10.112;2023-12-22T00:42:05;98649.88;;;4.63
69857;BMP280;57147;53.582;10.112;2023-12-22T00:47:06;98676.44;;;4.84
69857;BMP280;57147;53.582;10.112;2023-12-22T00:52:06;98690.81;;;4.87
69857;BMP280;57147;53.582;10.112;2023-12-22T00:57:06;98691.78;;;4.91
69857;BMP280;57147;53.582;10.112;2023-12-22T01:02:06;98708.63;;;4.90
69857;BMP280;57147;53.582;10.112;2023-12-22T01:07:10;98686.03;;;4.80
69857;BMP280;57147;53.582;10.112;2023-12-22T01:12:11;98677.94;;;4.77
69857;BMP280;57147;53.582;10.112;2023-12-22T01:17:11;98680.81;;;4.67
69857;BMP280;57147;53.582;10.112;2023-12-22T01:22:11;98673.03;;;4.61
69857;BMP280;57147;53.582;10.112;2023-12-22T01:27:12;98692.72;;;4.50
69857;BMP280;57147;53.582;10.112;2023-12-22T01:32:12;98674.59;;;4.13
69857;BMP280;57147;53.582;10.112;2023-12-22T01:37:13;98652.53;;;3.59
69857;BMP280;57147;53.582;10.112;2023-12-22T01:42:13;98586.22;;;2.99
69857;BMP280;57147;53.582;10.112;2023-12-22T01:47:14;98569.00;;;2.46
69857;BMP280;57147;53.582;10.112;2023-12-22T01:52:15;98546.38;;;2.18
69857;BMP280;57147;53.582;10.112;2023-12-22T01:57:16;98572.34;;;2.14
69857;BMP280;57147;53.582;10.112;2023-12-22T02:02:17;98558.47;;;2.14
69857;BMP280;57147;53.582;10.112;2023-12-22T02:07:18;98563.78;;;2.09
69857;BMP280;57147;53.582;10.112;2023-12-22T02:12:18;98559.19;;;2.01
69857;BMP280;57147;53.582;10.112;2023-12-22T02:22:22;98545.38;;;2.14
69857;BMP280;57147;53.582;10.112;2023-12-22T02:32:51;98537.63;;;2.41
69857;BMP280;57147;53.582;10.112;2023-12-22T02:37:52;98529.66;;;2.51
69857;BMP280;57147;53.582;10.112;2023-12-22T02:42:53;98507.63;;;2.52
69857;BMP280;57147;53.582;10.112;2023-12-22T02:47:53;98527.34;;;2.64
69857;BMP280;57147;53.582;10.112;2023-12-22T02:52:53;98515.00;;;2.32
69857;BMP280;57147;53.582;10.112;2023-12-22T02:57:55;98517.72;;;2.08
69857;BMP280;57147;53.582;10.112;2023-12-22T03:02:55;98505.28;;;2.00
69857;BMP280;57147;53.582;10.112;2023-12-22T03:07:55;98493.59;;;2.11
69857;BMP280;57147;53.582;10.112;2023-12-22T03:12:55;98521.69;;;2.05
69857;BMP280;57147;53.582;10.112;2023-12-22T03:17:56;98567.22;;;2.04
69857;BMP280;57147;53.582;10.112;2023-12-22T03:22:56;98562.88;;;2.00
69857;BMP280;57147;53.582;10.112;2023-12-22T03:27:56;98624.16;;;1.94
69857;BMP280;57147;53.582;10.112;2023-12-22T03:32:56;98584.75;;;1.85
69857;BMP280;57147;53.582;10.112;2023-12-22T03:37:56;98575.84;;;1.86
69857;BMP280;57147;53.582;10.112;2023-12-22T03:42:57;98570.03;;;1.89
69857;BMP280;57147;53.582;10.112;2023-12-22T03:47:57;98580.72;;;1.93
69857;BMP280;57147;53.582;10.112;2023-12-22T03:52:57;98586.97;;;1.97
69857;BMP280;57147;53.582;10.112;2023-12-22T03:57:57;98585.97;;;1.93
69857;BMP280;57147;53.582;10.112;2023-12-22T04:02:58;98561.81;;;2.01
69857;BMP280;57147;53.582;10.112;2023-12-22T04:07:58;98444.97;;;1.35
69857;BMP280;57147;53.582;10.112;2023-12-22T04:12:58;98541.84;;;2.05
69857;BMP280;57147;53.582;10.112;2023-12-22T04:17:58;98540.88;;;2.33
69857;BMP280;57147;53.582;10.112;2023-12-22T04:22:59;98556.78;;;2.56
69857;BMP280;57147;53.582;10.112;2023-12-22T04:27:59;98554.84;;;2.80
69857;BMP280;57147;53.582;10.112;2023-12-22T04:32:59;98541.00;;;2.93
69857;BMP280;57147;53.582;10.112;2023-12-22T04:38:00;98573.25;;;2.94
69857;BMP280;57147;53.582;10.112;2023-12-22T04:43:00;98587.22;;;3.03
69857;BMP280;57147;53.582;10.112;2023-12-22T04:48:00;98584.31;;;3.04
69857;BMP280;57147;53.582;10.112;2023-12-22T04:53:00;98565.09;;;3.09
69857;BMP280;57147;53.582;10.112;2023-12-22T04:58:01;98593.16;;;3.08
69857;BMP280;57147;53.582;10.112;2023-12-22T05:03:01;98586.84;;;3.09
69857;BMP280;57147;53.582;10.112;2023-12-22T05:08:01;98592.00;;;3.14
69857;BMP280;57147;53.582;10.112;2023-12-22T05:13:02;98634.25;;;3.27
69857;BMP280;57147;53.582;10.112;2023-12-22T05:18:02;98646.22;;;3.33
69857;BMP280;57147;53.582;10.112;2023-12-22T05:23:02;98622.53;;;2.92
69857;BMP280;57147;53.582;10.112;2023-12-22T05:28:03;98585.69;;;2.50
69857;BMP280;57147;53.582;10.112;2023-12-22T05:33:03;98613.00;;;2.44
69857;BMP280;57147;53.582;10.112;2023-12-22T05:38:03;98606.22;;;2.43
69857;BMP280;57147;53.582;10.112;2023-12-22T05:43:04;98650.88;;;2.52
69857;BMP280;57147;53.582;10.112;2023-12-22T05:48:04;98691.63;;;2.21
69857;BMP280;57147;53.582;10.112;2023-12-22T05:53:05;98657.75;;;1.58
69857;BMP280;57147;53.582;10.112;2023-12-22T05:58:05;98624.81;;;1.33
69857;BMP280;57147;53.582;10.112;2023-12-22T06:03:05;98643.72;;;1.20
69857;BMP280;57147;53.582;10.112;2023-12-22T06:08:06;98636.41;;;1.17
69857;BMP280;57147;53.582;10.112;2023-12-22T06:13:06;98665.66;;;1.19
69857;BMP280;57147;53.582;10.112;2023-12-22T06:18:06;98685.50;;;1.25
69857;BMP280;57147;53.582;10.112;2023-12-22T06:23:06;98673.94;;;1.31
69857;BMP280;57147;53.582;10.112;2023-12-22T06:28:07;98694.09;;;1.30
69857;BMP280;57147;53.582;10.112;2023-12-22T06:33:07;98648.06;;;1.00
69857;BMP280;57147;53.582;10.112;2023-12-22T06:38:07;98699.22;;;1.40
69857;BMP280;57147;53.582;10.112;2023-12-22T06:43:08;98710.25;;;1.37
69857;BMP280;57147;53.582;10.112;2023-12-22T06:48:08;98750.00;;;1.63
69857;BMP280;57147;53.582;10.112;2023-12-22T06:53:08;98776.16;;;1.63
69857;BMP280;57147;53.582;10.112;2023-12-22T06:58:08;98832.44;;;1.90
69857;BMP280;57147;53.582;10.112;2023-12-22T07:03:09;98842.84;;;2.00
69857;BMP280;57147;53.582;10.112;2023-12-22T07:08:09;98864.38;;;2.21
69857;BMP280;57147;53.582;10.112;2023-12-22T07:13:09;98882.22;;;2.42
69857;BMP280;57147;53.582;10.112;2023-12-22T07:18:09;98874.19;;;2.58
69857;BMP280;57147;53.582;10.112;2023-12-22T07:23:10;98873.88;;;2.64
69857;BMP280;57147;53.582;10.112;2023-12-22T07:28:10;98901.81;;;2.74
69857;BMP280;57147;53.582;10.112;2023-12-22T07:33:10;98893.50;;;2.67
69857;BMP280;57147;53.582;10.112;2023-12-22T07:38:11;98933.88;;;2.90
69857;BMP280;57147;53.582;10.112;2023-12-22T07:43:11;98932.00;;;2.95
69857;BMP280;57147;53.582;10.112;2023-12-22T07:48:11;98968.09;;;2.98
69857;BMP280;57147;53.582;10.112;2023-12-22T07:53:11;98921.88;;;2.54
69857;BMP280;57147;53.582;10.112;2023-12-22T07:58:12;98869.41;;;2.12
69857;BMP280;57147;53.582;10.112;2023-12-22T08:03:13;98870.53;;;2.30
69857;BMP280;57147;53.582;10.112;2023-12-22T08:08:13;98894.84;;;2.35
69857;BMP280;57147;53.582;10.112;2023-12-22T08:13:13;98929.34;;;2.42
69857;BMP280;57147;53.582;10.112;2023-12-22T08:18:14;98939.06;;;1.64
69857;BMP280;57147;53.582;10.112;2023-12-22T08:23:14;98865.84;;;1.20
69857;BMP280;57147;53.582;10.112;2023-12-22T08:28:14;98873.66;;;1.25
69857;BMP280;57147;53.582;10.112;2023-12-22T08:33:14;98889.31;;;1.30
69857;BMP280;57147;53.582;10.112;2023-12-22T08:38:15;98873.09;;;1.33
69857;BMP280;57147;53.582;10.112;2023-12-22T08:43:15;98883.50;;;1.43
69857;BMP280;57147;53.582;10.112;2023-12-22T08:48:15;98890.47;;;1.53
69857;BMP280;57147;53.582;10.112;2023-12-22T08:53:15;98905.84;;;1.69
69857;BMP280;57147;53.582;10.112;2023-12-22T08:58:16;98915.94;;;1.86
69857;BMP280;57147;53.582;10.112;2023-12-22T09:03:16;98992.94;;;2.14
69857;BMP280;57147;53.582;10.112;2023-12-22T09:08:16;99015.56;;;2.34
69857;BMP280;57147;53.582;10.112;2023-12-22T09:13:16;99046.03;;;2.53
69857;BMP280;57147;53.582;10.112;2023-12-22T09:18:17;99030.81;;;2.61
69857;BMP280;57147;53.582;10.112;2023-12-22T09:23:17;99067.97;;;2.68
69857;BMP280;57147;53.582;10.112;2023-12-22T09:28:17;99069.44;;;2.79
69857;BMP280;57147;53.582;10.112;2023-12-22T09:33:17;99090.28;;;2.94
69857;BMP280;57147;53.582;10.112;2023-12-22T09:38:18;99063.88;;;2.85
69857;BMP280;57147;53.582;10.112;2023-12-22T09:43:21;99090.59;;;3.16
69857;BMP280;57147;53.582;10.112;2023-12-22T09:48:22;99091.38;;;3.17
69857;BMP280;57147;53.582;10.112;2023-12-22T09:53:24;99104.47;;;3.46
69857;BMP280;57147;53.582;10.112;2023-12-22T09:58:24;99132.72;;;3.54
69857;BMP280;57147;53.582;10.112;2023-12-22T10:03:25;99092.47;;;3.64
69857;BMP280;57147;53.582;10.112;2023-12-22T10:08:26;99085.44;;;3.59
69857;BMP280;57147;53.582;10.112;2023-12-22T10:13:31;99112.13;;;3.66
69857;BMP280;57147;53.582;10.112;2023-12-22T10:18:33;99103.69;;;3.69
69857;BMP280;57147;53.582;10.112;2023-12-22T10:23:33;99125.66;;;3.73
69857;BMP280;57147;53.582;10.112;2023-12-22T10:28:33;99105.69;;;3.77
69857;BMP280;57147;53.582;10.112;2023-12-22T10:33:34;99103.00;;;3.82
69857;BMP280;57147;53.582;10.112;2023-12-22T10:38:34;99105.59;;;3.87
69857;BMP280;57147;53.582;10.112;2023-12-22T10:43:40;99103.44;;;3.89
69857;BMP280;57147;53.582;10.112;2023-12-22T10:48:41;99120.13;;;3.99
69857;BMP280;57147;53.582;10.112;2023-12-22T10:53:42;99122.19;;;4.02
69857;BMP280;57147;53.582;10.112;2023-12-22T10:58:42;99106.84;;;4.09
69857;BMP280;57147;53.582;10.112;2023-12-22T11:03:44;99106.56;;;3.91
69857;BMP280;57147;53.582;10.112;2023-12-22T11:08:48;99132.25;;;3.94
69857;BMP280;57147;53.582;10.112;2023-12-22T11:13:51;99123.03;;;3.73
69857;BMP280;57147;53.582;10.112;2023-12-22T11:18:53;99118.25;;;3.80
69857;BMP280;57147;53.582;10.112;2023-12-22T11:23:54;99110.94;;;3.77
69857;BMP280;57147;53.582;10.112;2023-12-22T11:28:55;99115.75;;;3.70
69857;BMP280;57147;53.582;10.112;2023-12-22T11:33:58;99084.81;;;3.67
69857;BMP280;57147;53.582;10.112;2023-12-22T11:38:58;99077.22;;;3.66
69857;BMP280;57147;53.582;10.112;2023-12-22T11:44:00;99052.28;;;3.68
69857;BMP280;57147;53.582;10.112;2023-12-22T11:49:01;99070.81;;;3.96
69857;BMP280;57147;53.582;10.112;2023-12-22T11:54:02;99078.69;;;4.14
69857;BMP280;57147;53.582;10.112;2023-12-22T11:59:02;99083.59;;;4.21
69857;BMP280;57147;53.582;10.112;2023-12-22T12:04:03;99019.25;;;3.86
69857;BMP280;57147;53.582;10.112;2023-12-22T12:09:05;99100.69;;;4.37
69857;BMP280;57147;53.582;10.112;2023-12-22T12:14:09;99090.38;;;4.59
69857;BMP280;57147;53.582;10.112;2023-12-22T12:19:09;99078.44;;;4.48
69857;BMP280;57147;53.582;10.112;2023-12-22T12:24:09;99096.63;;;4.63
69857;BMP280;57147;53.582;10.112;2023-12-22T12:29:10;99096.28;;;4.51
69857;BMP280;57147;53.582;10.112;2023-12-22T12:34:10;99088.13;;;4.53
69857;BMP280;57147;53.582;10.112;2023-12-22T12:39:14;99074.50;;;4.32
69857;BMP280;57147;53.582;10.112;2023-12-22T12:44:16;99081.25;;;4.19
69857;BMP280;57147;53.582;10.112;2023-12-22T12:49:18;99104.66;;;4.35
69857;BMP280;57147;53.582;10.112;2023-12-22T12:54:19;99084.38;;;4.21
69857;BMP280;57147;53.582;10.112;2023-12-22T12:59:19;99090.19;;;4.00
69857;BMP280;57147;53.582;10.112;2023-12-22T13:04:20;99042.34;;;3.65
69857;BMP280;57147;53.582;10.112;2023-12-22T13:09:20;99030.47;;;3.49
69857;BMP280;57147;53.582;10.112;2023-12-22T13:14:24;99015.97;;;3.33
69857;BMP280;57147;53.582;10.112;2023-12-22T13:19:25;99005.56;;;3.46
69857;BMP280;57147;53.582;10.112;2023-12-22T13:24:26;98962.31;;;3.44
69857;BMP280;57147;53.582;10.112;2023-12-22T13:29:26;99007.09;;;3.71
69857;BMP280;57147;53.582;10.112;2023-12-22T13:34:26;99008.34;;;3.74
69857;BMP280;57147;53.582;10.112;2023-12-22T13:39:27;98972.06;;;3.62
69857;BMP280;57147;53.582;10.112;2023-12-22T13:44:27;99024.28;;;3.82
69857;BMP280;57147;53.582;10.112;2023-12-22T13:49:33;99017.66;;;3.42
69857;BMP280;57147;53.582;10.112;2023-12-22T13:54:33;98983.78;;;3.03
69857;BMP280;57147;53.582;10.112;2023-12-22T13:59:34;98998.31;;;3.14
69857;BMP280;57147;53.582;10.112;2023-12-22T14:04:34;98994.22;;;3.08
69857;BMP280;57147;53.582;10.112;2023-12-22T14:09:34;98991.59;;;3.08
69857;BMP280;57147;53.582;10.112;2023-12-22T14:14:35;98992.09;;;3.10
69857;BMP280;57147;53.582;10.112;2023-12-22T14:19:35;98991.94;;;3.20
69857;BMP280;57147;53.582;10.112;2023-12-22T14:24:35;98979.84;;;3.24
69857;BMP280;57147;53.582;10.112;2023-12-22T14:29:37;98987.63;;;3.35
69857;BMP280;57147;53.582;10.112;2023-12-22T14:34:38;99015.41;;;3.36
69857;BMP280;57147;53.582;10.112;2023-12-22T14:39:38;99026.38;;;3.38
69857;BMP280;57147;53.582;10.112;2023-12-22T14:44:39;99031.56;;;3.43
69857;BMP280;57147;53.582;10.112;2023-12-22T14:49:39;99035.47;;;3.45
69857;BMP280;57147;53.582;10.112;2023-12-22T14:54:40;99024.66;;;3.52
69857;BMP280;57147;53.582;10.112;2023-12-22T14:59:40;99047.25;;;3.48
69857;BMP280;57147;53.582;10.112;2023-12-22T15:04:40;99055.91;;;3.48
69857;BMP280;57147;53.582;10.112;2023-12-22T15:09:40;99061.09;;;3.53
69857;BMP280;57147;53.582;10.112;2023-12-22T15:14:47;99050.44;;;3.45
69857;BMP280;57147;53.582;10.112;2023-12-22T15:19:47;99087.53;;;3.57
69857;BMP280;57147;53.582;10.112;2023-12-22T15:24:48;99088.03;;;3.59
69857;BMP280;57147;53.582;10.112;2023-12-22T15:29:48;99096.97;;;3.58
69857;BMP280;57147;53.582;10.112;2023-12-22T15:34:48;99108.25;;;3.58
69857;BMP280;57147;53.582;10.112;2023-12-22T15:39:48;99119.53;;;3.59
69857;BMP280;57147;53.582;10.112;2023-12-22T15:44:49;99110.59;;;3.60
69857;BMP280;57147;53.582;10.112;2023-12-22T15:49:49;99123.22;;;3.58
69857;BMP280;57147;53.582;10.112;2023-12-22T15:54:49;99103.28;;;3.57
69857;BMP280;57147;53.582;10.112;2023-12-22T15:59:49;99092.41;;;3.45
69857;BMP280;57147;53.582;10.112;2023-12-22T16:04:50;99080.56;;;3.47
69857;BMP280;57147;53.582;10.112;2023-12-22T16:09:50;99070.53;;;3.31
69857;BMP280;57147;53.582;10.112;2023-12-22T16:14:50;99072.09;;;3.32
69857;BMP280;57147;53.582;10.112;2023-12-22T16:19:50;99056.41;;;3.27
69857;BMP280;57147;53.582;10.112;2023-12-22T16:24:51;99045.91;;;3.27
69857;BMP280;57147;53.582;10.112;2023-12-22T16:29:51;99065.28;;;3.31
69857;BMP280;57147;53.582;10.112;2023-12-22T16:34:51;99070.41;;;3.41
69857;BMP280;57147;53.582;10.112;2023-12-22T16:39:52;99067.19;;;3.49
69857;BMP280;57147;53.582;10.112;2023-12-22T16:44:53;99051.94;;;3.51
69857;BMP280;57147;53.582;10.112;2023-12-22T16:49:53;99037.88;;;3.42
69857;BMP280;57147;53.582;10.112;2023-12-22T16:54:53;99047.97;;;3.06
69857;BMP280;57147;53.582;10.112;2023-12-22T16:59:54;99024.31;;;2.87
69857;BMP280;57147;53.582;10.112;2023-12-22T17:04:54;99026.59;;;2.65
69857;BMP280;57147;53.582;10.112;2023-12-22T17:09:54;99033.00;;;2.48
69857;BMP280;57147;53.582;10.112;2023-12-22T17:14:54;99043.00;;;2.41
69857;BMP280;57147;53.582;10.112;2023-12-22T17:19:55;99043.50;;;2.48
69857;BMP280;57147;53.582;10.112;2023-12-22T17:24:55;99066.31;;;2.43
69857;BMP280;57147;53.582;10.112;2023-12-22T17:29:55;99016.81;;;2.41
69857;BMP280;57147;53.582;10.112;2023-12-22T17:34:55;99003.72;;;2.41
69857;BMP280;57147;53.582;10.112;2023-12-22T17:39:56;99013.56;;;2.26
69857;BMP280;57147;53.582;10.112;2023-12-22T17:44:56;99010.97;;;2.21
69857;BMP280;57147;53.582;10.112;2023-12-22T17:49:56;98962.72;;;1.93
69857;BMP280;57147;53.582;10.112;2023-12-22T17:54:56;99001.28;;;2.21
69857;BMP280;57147;53.582;10.112;2023-12-22T17:59:56;98984.00;;;2.20
69857;BMP280;57147;53.582;10.112;2023-12-22T18:04:57;99002.22;;;2.30
69857;BMP280;57147;53.582;10.112;2023-12-22T18:09:57;99009.78;;;2.37
69857;BMP280;57147;53.582;10.112;2023-12-22T18:14:57;98997.75;;;2.31
69857;BMP280;57147;53.582;10.112;2023-12-22T18:19:58;99017.28;;;2.48
69857;BMP280;57147;53.582;10.112;2023-12-22T18:24:58;99039.34;;;2.42
69857;BMP280;57147;53.582;10.112;2023-12-22T18:29:58;99040.81;;;2.53
69857;BMP280;57147;53.582;10.112;2023-12-22T18:34:58;99042.88;;;2.57
69857;BMP280;57147;53.582;10.112;2023-12-22T18:39:59;99048.56;;;2.69
69857;BMP280;57147;53.582;10.112;2023-12-22T18:44:59;99028.63;;;2.73
69857;BMP280;57147;53.582;10.112;2023-12-22T18:50:00;98958.38;;;2.46
69857;BMP280;57147;53.582;10.112;2023-12-22T18:55:00;99050.88;;;3.04
69857;BMP280;57147;53.582;10.112;2023-12-22T19:00:01;99055.22;;;3.14
69857;BMP280;57147;53.582;10.112;2023-12-22T19:05:01;99072.19;;;3.21
69857;BMP280;57147;53.582;10.112;2023-12-22T19:10:01;99110.38;;;3.33
69857;BMP280;57147;53.582;10.112;2023-12-22T19:15:02;99089.94;;;3.30
69857;BMP280;57147;53.582;10.112;2023-12-22T19:20:04;99103.41;;;3.18
69857;BMP280;57147;53.582;10.112;2023-12-22T19:25:04;99137.78;;;3.16
69857;BMP280;57147;53.582;10.112;2023-12-22T19:30:05;99204.69;;;3.43
69857;BMP280;57147;53.582;10.112;2023-12-22T19:35:06;99202.06;;;3.43
69857;BMP280;57147;53.582;10.112;2023-12-22T19:40:07;99200.63;;;3.27
69857;BMP280;57147;53.582;10.112;2023-12-22T19:45:08;99178.50;;;3.09
69857;BMP280;57147;53.582;10.112;2023-12-22T19:50:08;99227.34;;;3.34
69857;BMP280;57147;53.582;10.112;2023-12-22T19:55:09;99226.56;;;3.33
69857;BMP280;57147;53.582;10.112;2023-12-22T20:00:09;99240.91;;;3.41
69857;BMP280;57147;53.582;10.112;2023-12-22T20:05:10;99249.69;;;3.55
69857;BMP280;57147;53.582;10.112;2023-12-22T20:10:10;99253.97;;;3.51
69857;BMP280;57147;53.582;10.112;2023-12-22T20:15:11;99243.41;;;3.56
69857;BMP280;57147;53.582;10.112;2023-12-22T20:20:11;99236.09;;;3.53
69857;BMP280;57147;53.582;10.112;2023-12-22T20:25:12;99217.44;;;3.54
69857;BMP280;57147;53.582;10.112;2023-12-22T20:30:12;99191.19;;;3.26
69857;BMP280;57147;53.582;10.112;2023-12-22T20:35:14;99227.63;;;3.61
69857;BMP280;57147;53.582;10.112;2023-12-22T20:40:14;99196.00;;;3.47
69857;BMP280;57147;53.582;10.112;2023-12-22T20:45:15;99231.22;;;3.70
69857;BMP280;57147;53.582;10.112;2023-12-22T20:50:16;99238.13;;;3.61
69857;BMP280;57147;53.582;10.112;2023-12-22T20:55:16;99238.31;;;3.70
69857;BMP280;57147;53.582;10.112;2023-12-22T21:00:17;99255.34;;;3.72
69857;BMP280;57147;53.582;10.112;2023-12-22T21:05:17;99306.28;;;3.71
69857;BMP280;57147;53.582;10.112;2023-12-22T21:10:17;99278.59;;;3.16
69857;BMP280;57147;53.582;10.112;2023-12-22T21:15:18;99261.75;;;2.83
69857;BMP280;57147;53.582;10.112;2023-12-22T21:20:18;99290.66;;;2.73
69857;BMP280;57147;53.582;10.112;2023-12-22T21:25:18;99367.09;;;2.90
69857;BMP280;57147;53.582;10.112;2023-12-22T21:30:18;99423.97;;;2.84
69857;BMP280;57147;53.582;10.112;2023-12-22T21:35:19;99399.34;;;2.75
69857;BMP280;57147;53.582;10.112;2023-12-22T21:40:19;99419.03;;;2.68
69857;BMP280;57147;53.582;10.112;2023-12-22T21:45:19;99481.91;;;2.58
69857;BMP280;57147;53.582;10.112;2023-12-22T21:50:19;99460.97;;;2.58
69857;BMP280;57147;53.582;10.112;2023-12-22T21:55:20;99487.16;;;2.58
69857;BMP280;57147;53.582;10.112;2023-12-22T22:00:20;99484.28;;;2.34
69857;BMP280;57147;53.582;10.112;2023-12-22T22:05:20;99456.72;;;1.80
69857;BMP280;57147;53.582;10.112;2023-12-22T22:10:21;99498.88;;;1.84
69857;BMP280;57147;53.582;10.112;2023-12-22T22:15:21;99475.56;;;1.72
69857;BMP280;57147;53.582;10.112;2023-12-22T22:20:21;99454.06;;;1.60
69857;BMP280;57147;53.582;10.112;2023-12-22T22:25:21;99460.88;;;1.66
69857;BMP280;57147;53.582;10.112;2023-12-22T22:30:23;99438.59;;;1.38
69857;BMP280;57147;53.582;10.112;2023-12-22T22:35:23;99484.41;;;1.61
69857;BMP280;57147;53.582;10.112;2023-12-22T22:40:30;99518.47;;;1.76
69857;BMP280;57147;53.582;10.112;2023-12-22T22:45:35;99546.97;;;1.78
69857;BMP280;57147;53.582;10.112;2023-12-22T22:50:36;99569.78;;;1.82
69857;BMP280;57147;53.582;10.112;2023-12-22T22:56:00;99571.63;;;1.87
69857;BMP280;57147;53.582;10.112;2023-12-22T23:01:00;99592.81;;;1.86
69857;BMP280;57147;53.582;10.112;2023-12-22T23:06:09;99551.09;;;1.59
69857;BMP280;57147;53.582;10.112;2023-12-22T23:11:09;99631.56;;;1.89
69857;BMP280;57147;53.582;10.112;2023-12-22T23:16:10;99613.34;;;2.14
69857;BMP280;57147;53.582;10.112;2023-12-22T23:21:10;99641.69;;;2.42
69857;BMP280;57147;53.582;10.112;2023-12-22T23:26:10;99631.56;;;1.89
69857;BMP280;57147;53.582;10.112;2023-12-22T23:31:11;99675.03;;;1.95
69857;BMP280;57147;53.582;10.112;2023-12-22T23:36:11;99683.97;;;1.99
69857;BMP280;57147;53.582;10.112;2023-12-22T23:41:11;99709.03;;;1.90
69857;BMP280;57147;53.582;10.112;2023-12-22T23:46:11;99714.22;;;1.84
69857;BMP280;57147;53.582;10.112;2023-12-22T23:51:13;99722.13;;;1.90
69857;BMP280;57147;53.582;10.112;2023-12-22T23:56:13;99715.31;;;1.89
